createdAt,value
2023-03-12T00:00:54.340Z,1999.90
2023-03-12T00:01:54.338Z,1999.90
2023-03-12T00:02:54.392Z,1999.90
2023-03-12T00:03:54.447Z,1999.90
2023-03-12T00:04:54.308Z,1999.90
2023-03-12T00:05:54.272Z,1999.90
2023-03-12T00:06:54.268Z,1999.90
2023-03-12T00:07:54.324Z,1999.90
2023-03-12T00:08:56.303Z,1999.90
2023-03-12T00:09:54.276Z,1999.90
2023-03-12T00:10:54.227Z,1999.90
2023-03-12T00:11:54.221Z,1999.90
2023-03-12T00:12:54.273Z,1999.90
2023-03-12T00:13:54.192Z,1999.90
2023-03-12T00:14:54.209Z,1999.90
2023-03-12T00:15:54.205Z,1999.90
2023-03-12T00:16:54.176Z,1999.90
2023-03-12T00:17:54.219Z,1999.90
2023-03-12T00:18:54.140Z,1999.90
2023-03-12T00:19:54.148Z,1999.90
2023-03-12T00:20:54.136Z,1999.90
2023-03-12T00:21:54.119Z,1999.90
2023-03-12T00:22:54.143Z,747.90
2023-03-12T00:23:54.092Z,1157.80
2023-03-12T00:24:54.081Z,1999.90
2023-03-12T00:25:54.066Z,1999.90
2023-03-12T00:26:54.059Z,1999.90
2023-03-12T00:27:54.091Z,1999.90
2023-03-12T00:28:54.058Z,1999.90
2023-03-12T00:29:54.025Z,1999.90
2023-03-12T00:30:57.067Z,1999.90
2023-03-12T00:31:54.009Z,1999.90
2023-03-12T00:32:54.082Z,608.30
2023-03-12T00:33:53.977Z,821.60
2023-03-12T00:34:53.983Z,502.80
2023-03-12T00:35:54.000Z,669.80
2023-03-12T00:36:53.947Z,728.10
2023-03-12T00:37:53.973Z,645.30
2023-03-12T00:38:53.922Z,706.70
2023-03-12T00:39:53.920Z,801.90
2023-03-12T00:40:53.903Z,574.90
2023-03-12T00:41:53.883Z,758.10
2023-03-12T00:42:53.932Z,1152.30
2023-03-12T00:43:53.860Z,1134.20
2023-03-12T00:44:53.857Z,1025.30
2023-03-12T00:45:53.836Z,1054.70
2023-03-12T00:46:53.894Z,1021.40
2023-03-12T00:47:53.818Z,1009.80
2023-03-12T00:48:53.866Z,1025.60
2023-03-12T00:49:53.800Z,1013.10
2023-03-12T00:50:53.793Z,899.50
2023-03-12T00:51:53.798Z,973.70
2023-03-12T00:52:53.800Z,446.30
2023-03-12T00:53:53.818Z,374.70
2023-03-12T00:54:53.794Z,1018.90
2023-03-12T00:55:53.732Z,828.00
2023-03-12T00:56:53.746Z,883.20
2023-03-12T00:57:53.716Z,684.30
2023-03-12T00:58:53.747Z,549.10
2023-03-12T00:59:53.688Z,566.70
2023-03-12T01:00:53.720Z,515.10
2023-03-12T01:01:53.677Z,523.60
2023-03-12T01:02:53.667Z,524.70
2023-03-12T01:03:53.684Z,506.90
2023-03-12T01:04:53.623Z,509.30
2023-03-12T01:05:53.609Z,509.20
2023-03-12T01:06:53.612Z,501.80
2023-03-12T01:07:53.596Z,469.50
2023-03-12T01:08:53.629Z,484.00
2023-03-12T01:09:53.574Z,474.30
2023-03-12T01:10:53.570Z,459.30
2023-03-12T01:11:53.567Z,429.30
2023-03-12T01:12:53.548Z,347.70
2023-03-12T01:13:53.571Z,363.00
2023-03-12T01:14:53.539Z,391.30
2023-03-12T01:15:53.516Z,412.30
2023-03-12T01:16:53.626Z,423.10
2023-03-12T01:17:53.498Z,441.80
2023-03-12T01:18:53.516Z,499.50
2023-03-12T01:19:53.467Z,528.70
2023-03-12T01:20:53.461Z,627.10
2023-03-12T01:21:53.446Z,716.40
2023-03-12T01:22:53.439Z,735.80
2023-03-12T01:23:53.462Z,831.20
2023-03-12T01:24:53.446Z,868.80
2023-03-12T01:25:53.406Z,878.30
2023-03-12T01:26:53.404Z,898.90
2023-03-12T01:27:53.382Z,907.70
2023-03-12T01:28:53.415Z,906.00
2023-03-12T01:29:53.358Z,896.80
2023-03-12T01:30:53.351Z,800.70
2023-03-12T01:31:53.448Z,668.80
2023-03-12T01:32:53.404Z,646.60
2023-03-12T01:33:53.347Z,625.90
2023-03-12T01:34:53.304Z,626.40
2023-03-12T01:35:53.459Z,671.80
2023-03-12T01:36:53.270Z,1615.00
2023-03-12T01:37:53.285Z,1486.30
2023-03-12T01:38:53.298Z,732.10
2023-03-12T01:39:53.284Z,884.50
2023-03-12T01:40:53.244Z,833.80
2023-03-12T01:41:53.227Z,812.40
2023-03-12T01:42:53.215Z,844.20
2023-03-12T01:43:53.236Z,892.80
2023-03-12T01:44:53.208Z,867.90
2023-03-12T01:45:53.219Z,786.20
2023-03-12T01:46:53.174Z,557.90
2023-03-12T01:47:53.151Z,709.60
2023-03-12T01:48:53.174Z,689.40
2023-03-12T01:49:53.141Z,637.00
2023-03-12T01:50:53.125Z,669.40
2023-03-12T01:51:53.121Z,623.40
2023-03-12T01:52:53.107Z,658.20
2023-03-12T01:53:53.131Z,664.30
2023-03-12T01:54:53.096Z,595.30
2023-03-12T01:55:53.063Z,546.90
2023-03-12T01:56:53.065Z,540.30
2023-03-12T01:57:53.045Z,567.40
2023-03-12T01:58:53.080Z,524.10
2023-03-12T01:59:53.033Z,488.60
2023-03-12T02:00:53.043Z,491.40
2023-03-12T02:01:53.008Z,441.80
2023-03-12T02:02:52.991Z,684.00
2023-03-12T02:03:53.128Z,769.60
2023-03-12T02:04:52.971Z,484.40
2023-03-12T02:05:52.967Z,413.50
2023-03-12T02:06:52.946Z,389.60
2023-03-12T02:07:52.935Z,381.50
2023-03-12T02:08:52.984Z,390.50
2023-03-12T02:09:52.923Z,346.10
2023-03-12T02:10:52.905Z,423.00
2023-03-12T02:11:52.888Z,471.70
2023-03-12T02:12:52.886Z,498.00
2023-03-12T02:13:52.928Z,477.00
2023-03-12T02:14:52.863Z,360.90
2023-03-12T02:15:52.839Z,347.80
2023-03-12T02:16:52.971Z,403.50
2023-03-12T02:17:52.834Z,420.90
2023-03-12T02:18:52.863Z,403.70
2023-03-12T02:19:52.796Z,413.90
2023-03-12T02:20:52.794Z,387.90
2023-03-12T02:21:52.781Z,376.20
2023-03-12T02:22:52.787Z,434.20
2023-03-12T02:23:52.796Z,461.40
2023-03-12T02:24:52.764Z,401.40
2023-03-12T02:25:52.769Z,405.90
2023-03-12T02:26:52.737Z,383.70
2023-03-12T02:27:52.713Z,367.30
2023-03-12T02:28:52.756Z,378.40
2023-03-12T02:29:52.698Z,351.30
2023-03-12T02:30:52.728Z,353.50
2023-03-12T02:31:52.754Z,351.90
2023-03-12T02:32:52.717Z,400.90
2023-03-12T02:33:52.684Z,396.70
2023-03-12T02:34:52.633Z,443.10
2023-03-12T02:35:52.676Z,479.50
2023-03-12T02:36:52.608Z,430.20
2023-03-12T02:37:52.616Z,472.50
2023-03-12T02:38:52.640Z,575.70
2023-03-12T02:39:52.581Z,591.90
2023-03-12T02:40:52.580Z,569.80
2023-03-12T02:41:52.564Z,498.80
2023-03-12T02:42:52.540Z,414.60
2023-03-12T02:43:52.585Z,403.80
2023-03-12T02:44:52.526Z,446.60
2023-03-12T02:45:52.559Z,428.50
2023-03-12T02:46:52.517Z,447.70
2023-03-12T02:47:52.501Z,421.20
2023-03-12T02:48:52.529Z,407.00
2023-03-12T02:49:52.475Z,369.90
2023-03-12T02:50:52.469Z,320.60
2023-03-12T02:51:52.470Z,309.20
2023-03-12T02:52:52.449Z,287.60
2023-03-12T02:53:52.480Z,253.00
2023-03-12T02:54:52.422Z,392.90
2023-03-12T02:55:52.414Z,424.40
2023-03-12T02:56:52.411Z,463.60
2023-03-12T02:57:52.394Z,566.80
2023-03-12T02:58:52.417Z,459.80
2023-03-12T02:59:52.367Z,436.70
2023-03-12T03:00:52.371Z,532.00
2023-03-12T03:01:52.339Z,598.70
2023-03-12T03:02:52.333Z,644.70
2023-03-12T03:03:52.390Z,824.90
2023-03-12T03:04:52.299Z,635.90
2023-03-12T03:05:52.307Z,501.30
2023-03-12T03:06:52.274Z,616.80
2023-03-12T03:07:52.265Z,824.80
2023-03-12T03:08:52.318Z,906.80
2023-03-12T03:09:52.253Z,919.40
2023-03-12T03:10:52.236Z,899.80
2023-03-12T03:11:52.265Z,873.20
2023-03-12T03:12:52.213Z,587.70
2023-03-12T03:13:52.269Z,605.80
2023-03-12T03:14:52.205Z,441.80
2023-03-12T03:15:52.235Z,410.70
2023-03-12T03:16:52.186Z,438.40
2023-03-12T03:17:52.171Z,417.40
2023-03-12T03:18:52.206Z,481.20
2023-03-12T03:19:52.150Z,494.80
2023-03-12T03:20:52.132Z,483.50
2023-03-12T03:21:52.148Z,392.90
2023-03-12T03:22:52.115Z,417.30
2023-03-12T03:23:52.179Z,414.70
2023-03-12T03:24:52.093Z,414.60
2023-03-12T03:25:52.076Z,411.70
2023-03-12T03:26:52.069Z,422.60
2023-03-12T03:27:52.066Z,416.20
2023-03-12T03:28:52.095Z,399.00
2023-03-12T03:29:57.363Z,333.80
2023-03-12T03:30:52.112Z,294.10
2023-03-12T03:31:52.031Z,360.80
2023-03-12T03:32:52.049Z,432.60
2023-03-12T03:33:52.065Z,374.20
2023-03-12T03:34:52.020Z,324.60
2023-03-12T03:35:52.034Z,316.20
2023-03-12T03:36:51.964Z,289.30
2023-03-12T03:37:51.934Z,252.20
2023-03-12T03:38:52.000Z,202.70
2023-03-12T03:39:51.949Z,180.70
2023-03-12T03:40:51.925Z,174.60
2023-03-12T03:41:51.917Z,164.70
2023-03-12T03:42:51.899Z,189.50
2023-03-12T03:43:51.928Z,201.80
2023-03-12T03:44:51.897Z,206.00
2023-03-12T03:45:51.911Z,177.00
2023-03-12T03:46:51.859Z,157.50
2023-03-12T03:47:51.827Z,235.40
2023-03-12T03:48:51.881Z,275.30
2023-03-12T03:49:51.830Z,341.50
2023-03-12T03:50:51.807Z,539.90
2023-03-12T03:51:51.842Z,705.90
2023-03-12T03:52:51.783Z,462.20
2023-03-12T03:53:51.808Z,316.80
2023-03-12T03:54:51.783Z,310.70
2023-03-12T03:55:51.769Z,336.40
2023-03-12T03:56:51.745Z,476.50
2023-03-12T03:57:51.740Z,630.30
2023-03-12T03:58:51.778Z,655.70
2023-03-12T03:59:51.706Z,493.40
2023-03-12T04:00:51.719Z,348.20
2023-03-12T04:01:51.697Z,390.60
2023-03-12T04:02:51.680Z,381.00
2023-03-12T04:03:51.735Z,370.10
2023-03-12T04:04:52.311Z,453.90
2023-03-12T04:05:51.666Z,621.00
2023-03-12T04:06:51.645Z,802.90
2023-03-12T04:07:51.608Z,875.60
2023-03-12T04:08:51.613Z,848.10
2023-03-12T04:09:51.626Z,706.40
2023-03-12T04:10:51.596Z,589.50
2023-03-12T04:11:51.575Z,649.30
2023-03-12T04:12:51.582Z,815.40
2023-03-12T04:13:51.550Z,759.20
2023-03-12T04:14:51.574Z,765.90
2023-03-12T04:15:51.642Z,402.80
2023-03-12T04:16:51.525Z,377.10
2023-03-12T04:17:51.572Z,331.40
2023-03-12T04:18:51.499Z,374.30
2023-03-12T04:19:51.534Z,347.70
2023-03-12T04:20:51.515Z,354.10
2023-03-12T04:21:51.484Z,463.70
2023-03-12T04:22:51.457Z,575.50
2023-03-12T04:23:51.450Z,613.00
2023-03-12T04:24:51.493Z,653.20
2023-03-12T04:25:51.435Z,819.00
2023-03-12T04:26:51.422Z,866.20
2023-03-12T04:27:51.397Z,772.80
2023-03-12T04:28:51.398Z,668.70
2023-03-12T04:29:51.420Z,602.40
2023-03-12T04:30:51.368Z,585.00
2023-03-12T04:31:51.361Z,658.70
2023-03-12T04:32:51.404Z,844.30
2023-03-12T04:33:51.338Z,865.30
2023-03-12T04:34:51.360Z,855.10
2023-03-12T04:35:51.315Z,864.50
2023-03-12T04:36:51.298Z,839.90
2023-03-12T04:37:51.278Z,695.60
2023-03-12T04:38:51.283Z,646.80
2023-03-12T04:39:51.307Z,656.40
2023-03-12T04:40:51.258Z,686.00
2023-03-12T04:41:51.260Z,671.30
2023-03-12T04:42:51.242Z,668.10
2023-03-12T04:43:51.236Z,808.50
2023-03-12T04:44:51.266Z,1999.90
2023-03-12T04:45:51.213Z,1999.90
2023-03-12T04:46:51.293Z,1999.90
2023-03-12T04:47:51.185Z,1999.90
2023-03-12T04:48:51.170Z,1999.90
2023-03-12T04:49:51.211Z,1999.90
2023-03-12T04:50:51.158Z,1999.90
2023-03-12T04:51:51.133Z,777.70
2023-03-12T04:52:51.134Z,788.80
2023-03-12T04:53:51.115Z,1999.90
2023-03-12T04:54:51.166Z,1999.90
2023-03-12T04:55:51.099Z,1999.90
2023-03-12T04:56:51.092Z,1999.90
2023-03-12T04:57:51.102Z,1999.90
2023-03-12T04:58:51.065Z,1999.90
2023-03-12T04:59:51.092Z,1999.90
2023-03-12T05:00:51.051Z,1999.90
2023-03-12T05:01:51.028Z,1999.90
2023-03-12T05:02:51.061Z,1999.90
2023-03-12T05:03:51.025Z,1999.90
2023-03-12T05:04:51.042Z,1999.90
2023-03-12T05:05:50.982Z,552.30
2023-03-12T05:06:51.003Z,319.20
2023-03-12T05:07:50.968Z,632.30
2023-03-12T05:08:50.962Z,600.10
2023-03-12T05:09:50.985Z,529.30
2023-03-12T05:10:50.950Z,262.40
2023-03-12T05:11:50.928Z,331.30
2023-03-12T05:12:50.916Z,328.00
2023-03-12T05:13:50.912Z,312.20
2023-03-12T05:14:50.952Z,313.90
2023-03-12T05:15:51.004Z,298.50
2023-03-12T05:16:50.865Z,241.20
2023-03-12T05:17:50.858Z,250.90
2023-03-12T05:18:50.875Z,248.40
2023-03-12T05:19:50.883Z,245.90
2023-03-12T05:20:50.841Z,256.80
2023-03-12T05:21:50.809Z,244.30
2023-03-12T05:22:50.805Z,231.20
2023-03-12T05:23:50.791Z,240.30
2023-03-12T05:24:50.822Z,220.70
2023-03-12T05:25:50.769Z,203.10
2023-03-12T05:26:50.764Z,211.30
2023-03-12T05:27:50.743Z,262.60
2023-03-12T05:28:50.739Z,332.90
2023-03-12T05:29:50.748Z,353.40
2023-03-12T05:30:50.743Z,279.70
2023-03-12T05:31:50.801Z,348.40
2023-03-12T05:32:50.733Z,523.90
2023-03-12T05:33:52.759Z,446.10
2023-03-12T05:34:50.723Z,345.00
2023-03-12T05:35:50.665Z,305.30
2023-03-12T05:36:50.669Z,155.70
2023-03-12T05:37:50.658Z,452.20
2023-03-12T05:38:50.852Z,382.00
2023-03-12T05:39:50.698Z,345.50
2023-03-12T05:40:50.654Z,303.40
2023-03-12T05:41:50.604Z,275.50
2023-03-12T05:42:50.580Z,141.70
2023-03-12T05:43:52.401Z,243.50
2023-03-12T05:44:50.825Z,269.90
2023-03-12T05:45:50.624Z,218.70
2023-03-12T05:46:50.597Z,292.30
2023-03-12T05:47:50.523Z,318.50
2023-03-12T05:48:50.541Z,208.00
2023-03-12T05:49:50.536Z,230.00
2023-03-12T05:50:50.506Z,228.30
2023-03-12T05:51:51.281Z,244.20
2023-03-12T05:52:50.517Z,261.00
2023-03-12T05:53:50.492Z,187.30
2023-03-12T05:54:50.494Z,127.40
2023-03-12T05:55:50.425Z,145.70
2023-03-12T05:56:50.426Z,305.30
2023-03-12T05:57:50.408Z,235.50
2023-03-12T05:58:50.412Z,470.10
2023-03-12T05:59:50.443Z,344.80
2023-03-12T06:00:50.425Z,326.40
2023-03-12T06:01:50.474Z,268.50
2023-03-12T06:02:50.353Z,305.60
2023-03-12T06:03:50.403Z,440.90
2023-03-12T06:04:50.370Z,253.80
2023-03-12T06:05:50.327Z,346.90
2023-03-12T06:06:50.319Z,759.90
2023-03-12T06:07:50.301Z,792.80
2023-03-12T06:08:50.292Z,863.30
2023-03-12T06:09:50.323Z,941.20
2023-03-12T06:10:50.282Z,585.90
2023-03-12T06:11:50.260Z,798.30
2023-03-12T06:12:50.262Z,902.30
2023-03-12T06:13:50.255Z,969.40
2023-03-12T06:14:50.276Z,1999.90
2023-03-12T06:15:50.223Z,1999.90
2023-03-12T06:16:50.239Z,530.00
2023-03-12T06:17:50.201Z,611.40
2023-03-12T06:18:50.180Z,582.70
2023-03-12T06:19:50.210Z,708.80
2023-03-12T06:20:50.161Z,1999.90
2023-03-12T06:21:50.180Z,1999.90
2023-03-12T06:22:50.143Z,743.30
2023-03-12T06:23:50.146Z,1100.90
2023-03-12T06:24:50.168Z,1999.90
2023-03-12T06:25:50.107Z,1999.90
2023-03-12T06:26:50.100Z,1999.90
2023-03-12T06:27:50.093Z,1999.90
2023-03-12T06:28:50.077Z,1999.90
2023-03-12T06:29:50.111Z,1999.90
2023-03-12T06:30:50.056Z,1999.90
2023-03-12T06:31:50.039Z,1999.90
2023-03-12T06:32:50.073Z,1999.90
2023-03-12T06:33:50.004Z,1999.90
2023-03-12T06:34:50.037Z,1999.90
2023-03-12T06:35:50.005Z,1999.90
2023-03-12T06:36:50.032Z,1999.90
2023-03-12T06:37:49.987Z,1999.90
2023-03-12T06:38:49.952Z,1999.90
2023-03-12T06:39:49.988Z,1999.90
2023-03-12T06:40:49.936Z,1999.90
2023-03-12T06:41:49.934Z,1999.90
2023-03-12T06:42:49.934Z,1999.90
2023-03-12T06:43:49.898Z,1999.90
2023-03-12T06:44:49.931Z,1437.40
2023-03-12T06:45:49.887Z,1258.80
2023-03-12T06:46:50.012Z,486.60
2023-03-12T06:47:49.847Z,135.40
2023-03-12T06:48:49.855Z,1008.10
2023-03-12T06:49:49.882Z,746.60
2023-03-12T06:50:49.838Z,435.80
2023-03-12T06:51:49.813Z,636.90
2023-03-12T06:52:49.809Z,203.70
2023-03-12T06:53:49.785Z,34.90
2023-03-12T06:54:49.828Z,33.50
2023-03-12T06:55:49.777Z,57.30
2023-03-12T06:56:49.752Z,62.80
2023-03-12T06:57:49.744Z,48.30
2023-03-12T06:58:49.738Z,22.10
2023-03-12T06:59:50.695Z,18.70
2023-03-12T07:00:49.721Z,19.70
2023-03-12T07:01:49.710Z,32.80
2023-03-12T07:02:49.683Z,34.30
2023-03-12T07:03:49.680Z,42.60
2023-03-12T07:04:49.728Z,39.60
2023-03-12T07:05:49.711Z,31.40
2023-03-12T07:06:49.674Z,32.40
2023-03-12T07:07:49.640Z,14.30
2023-03-12T07:08:49.638Z,22.90
2023-03-12T07:09:49.628Z,21.70
2023-03-12T07:10:49.662Z,18.60
2023-03-12T07:11:49.596Z,27.20
2023-03-12T07:12:49.579Z,34.80
2023-03-12T07:13:49.590Z,36.30
2023-03-12T07:14:49.563Z,32.70
2023-03-12T07:15:49.662Z,18.20
2023-03-12T07:16:49.540Z,18.80
2023-03-12T07:17:49.532Z,20.30
2023-03-12T07:18:49.550Z,24.10
2023-03-12T07:19:49.888Z,18.90
2023-03-12T07:20:49.538Z,20.20
2023-03-12T07:21:49.530Z,25.00
2023-03-12T07:22:49.491Z,27.40
2023-03-12T07:23:49.458Z,31.30
2023-03-12T07:24:49.443Z,31.60
2023-03-12T07:25:49.483Z,31.10
2023-03-12T07:26:49.415Z,32.60
2023-03-12T07:27:49.419Z,34.00
2023-03-12T07:28:49.405Z,33.30
2023-03-12T07:29:49.409Z,29.60
2023-03-12T07:30:49.439Z,31.90
2023-03-12T07:31:49.371Z,29.00
2023-03-12T07:32:49.377Z,30.60
2023-03-12T07:33:49.471Z,32.30
2023-03-12T07:34:49.337Z,27.70
2023-03-12T07:35:51.629Z,28.90
2023-03-12T07:36:49.476Z,32.90
2023-03-12T07:37:49.378Z,31.80
2023-03-12T07:38:49.299Z,36.20
2023-03-12T07:39:49.347Z,39.10
2023-03-12T07:40:49.329Z,46.90
2023-03-12T07:41:49.400Z,47.70
2023-03-12T07:42:49.363Z,49.40
2023-03-12T07:43:49.560Z,53.00
2023-03-12T07:44:49.222Z,45.50
2023-03-12T07:45:49.697Z,45.20
2023-03-12T07:46:49.407Z,39.40
2023-03-12T07:47:49.737Z,35.90
2023-03-12T07:48:49.171Z,34.30
2023-03-12T07:49:49.610Z,35.00
2023-03-12T07:50:49.223Z,38.70
2023-03-12T07:51:49.181Z,40.40
2023-03-12T07:52:49.268Z,40.10
2023-03-12T07:53:49.120Z,43.90
2023-03-12T07:54:49.231Z,41.40
2023-03-12T07:55:49.352Z,41.10
2023-03-12T07:56:49.541Z,36.30
2023-03-12T07:57:49.331Z,36.10
2023-03-12T07:58:49.199Z,29.80
2023-03-12T07:59:49.103Z,24.70
2023-03-12T08:00:49.112Z,22.40
2023-03-12T08:01:49.063Z,23.20
2023-03-12T08:02:49.169Z,18.60
2023-03-12T08:03:49.044Z,11.00
2023-03-12T08:04:49.238Z,9.20
2023-03-12T08:05:49.081Z,10.80
2023-03-12T08:06:49.061Z,10.60
2023-03-12T08:07:48.965Z,12.30
2023-03-12T08:08:49.199Z,12.40
2023-03-12T08:09:49.473Z,11.50
2023-03-12T08:10:48.962Z,12.80
2023-03-12T08:11:49.005Z,14.40
2023-03-12T08:12:49.201Z,14.20
2023-03-12T08:13:48.908Z,12.40
2023-03-12T08:14:49.118Z,12.20
2023-03-12T08:15:48.924Z,12.90
2023-03-12T08:16:48.908Z,11.20
2023-03-12T08:17:49.105Z,11.50
2023-03-12T08:18:48.837Z,12.40
2023-03-12T08:19:48.842Z,10.20
2023-03-12T08:20:48.886Z,10.10
2023-03-12T08:21:48.808Z,13.30
2023-03-12T08:22:48.792Z,21.70
2023-03-12T08:23:48.788Z,23.20
2023-03-12T08:24:48.940Z,22.80
2023-03-12T08:25:48.807Z,23.30
2023-03-12T08:26:48.800Z,23.20
2023-03-12T08:27:48.745Z,18.00
2023-03-12T08:28:48.741Z,12.90
2023-03-12T08:29:48.722Z,12.20
2023-03-12T08:30:48.732Z,8.40
2023-03-12T08:32:03.725Z,7.90
2023-03-12T08:32:49.694Z,8.80
2023-03-12T08:33:48.676Z,8.80
2023-03-12T08:34:48.672Z,8.30
2023-03-12T08:35:48.724Z,7.40
2023-03-12T08:36:48.664Z,6.90
2023-03-12T08:37:48.665Z,7.70
2023-03-12T08:38:48.612Z,7.70
2023-03-12T08:39:48.626Z,7.30
2023-03-12T08:40:48.642Z,7.80
2023-03-12T08:41:48.584Z,8.30
2023-03-12T08:42:48.563Z,7.40
2023-03-12T08:43:48.595Z,7.90
2023-03-12T08:44:48.593Z,9.00
2023-03-12T08:45:48.645Z,10.70
2023-03-12T08:46:48.520Z,11.10
2023-03-12T08:47:48.530Z,15.70
2023-03-12T08:48:48.510Z,23.10
2023-03-12T08:49:48.514Z,19.10
2023-03-12T08:50:48.533Z,14.30
2023-03-12T08:51:48.523Z,16.10
2023-03-12T08:52:48.453Z,18.30
2023-03-12T08:53:48.473Z,13.80
2023-03-12T08:54:48.515Z,9.40
2023-03-12T08:55:48.454Z,12.10
2023-03-12T08:56:48.448Z,11.50
2023-03-12T08:57:48.426Z,10.40
2023-03-12T08:58:48.393Z,9.50
2023-03-12T08:59:48.384Z,9.40
2023-03-12T09:00:48.429Z,8.80
2023-03-12T09:01:48.394Z,9.10
2023-03-12T09:02:48.377Z,8.30
2023-03-12T09:03:48.371Z,6.90
2023-03-12T09:04:48.393Z,6.50
2023-03-12T09:05:48.380Z,6.50
2023-03-12T09:06:48.324Z,6.60
2023-03-12T09:07:48.315Z,6.30
2023-03-12T09:08:48.300Z,6.30
2023-03-12T09:09:48.292Z,7.20
2023-03-12T09:10:48.331Z,6.50
2023-03-12T09:11:48.275Z,6.00
2023-03-12T09:12:48.240Z,6.00
2023-03-12T09:14:16.908Z,6.50
2023-03-12T09:15:02.536Z,6.80
2023-03-12T09:15:49.275Z,7.50
2023-03-12T09:16:48.255Z,6.30
2023-03-12T09:17:48.199Z,5.60
2023-03-12T09:18:48.201Z,5.90
2023-03-12T09:19:48.170Z,6.00
2023-03-12T09:20:48.186Z,5.50
2023-03-12T09:21:48.154Z,5.70
2023-03-12T09:22:48.154Z,5.80
2023-03-12T09:23:48.148Z,6.20
2023-03-12T09:24:48.130Z,6.30
2023-03-12T09:25:48.138Z,6.40
2023-03-12T09:26:48.081Z,6.10
2023-03-12T09:27:48.056Z,6.20
2023-03-12T09:28:48.095Z,6.30
2023-03-12T09:29:59.552Z,6.00
2023-03-12T09:30:49.136Z,6.50
2023-03-12T09:31:48.044Z,6.30
2023-03-12T09:32:48.079Z,6.30
2023-03-12T09:33:48.013Z,6.20
2023-03-12T09:34:47.999Z,6.20
2023-03-12T09:35:48.047Z,5.90
2023-03-12T09:36:47.977Z,5.50
2023-03-12T09:37:47.964Z,5.90
2023-03-12T09:38:47.961Z,6.40
2023-03-12T09:39:47.931Z,5.70
2023-03-12T09:40:47.904Z,5.80
2023-03-12T09:41:47.963Z,6.00
2023-03-12T09:42:47.906Z,5.80
2023-03-12T09:43:47.914Z,5.80
2023-03-12T09:44:47.867Z,5.50
2023-03-12T09:45:47.899Z,6.10
2023-03-12T09:46:47.901Z,5.90
2023-03-12T09:47:47.858Z,5.80
2023-03-12T09:48:47.854Z,6.20
2023-03-12T09:49:47.807Z,5.90
2023-03-12T09:50:47.854Z,5.90
2023-03-12T09:51:47.858Z,6.10
2023-03-12T09:52:47.806Z,6.20
2023-03-12T09:53:47.787Z,6.60
2023-03-12T09:54:47.761Z,6.50
2023-03-12T09:55:47.751Z,6.70
2023-03-12T09:56:47.773Z,6.10
2023-03-12T09:57:47.769Z,6.10
2023-03-12T09:58:47.715Z,6.30
2023-03-12T09:59:47.712Z,6.30
2023-03-12T10:00:47.790Z,6.80
2023-03-12T10:01:47.750Z,7.00
2023-03-12T10:02:47.693Z,5.90
2023-03-12T10:03:47.654Z,6.90
2023-03-12T10:04:59.055Z,6.20
2023-03-12T10:05:48.635Z,6.00
2023-03-12T10:06:47.692Z,5.70
2023-03-12T10:07:47.611Z,6.00
2023-03-12T10:08:47.611Z,6.10
2023-03-12T10:09:47.618Z,6.30
2023-03-12T10:10:47.593Z,6.00
2023-03-12T10:11:47.612Z,5.80
2023-03-12T10:12:47.764Z,5.90
2023-03-12T10:13:47.552Z,5.70
2023-03-12T10:14:47.520Z,5.60
2023-03-12T10:15:47.564Z,5.70
2023-03-12T10:16:47.577Z,5.60
2023-03-12T10:17:47.633Z,6.10
2023-03-12T10:18:48.500Z,6.20
2023-03-12T10:19:47.478Z,6.40
2023-03-12T10:20:47.466Z,6.50
2023-03-12T10:21:47.510Z,5.80
2023-03-12T10:22:47.418Z,6.20
2023-03-12T10:23:47.437Z,5.70
2023-03-12T10:24:47.443Z,5.60
2023-03-12T10:25:47.427Z,5.50
2023-03-12T10:26:47.451Z,5.60
2023-03-12T10:27:47.415Z,5.60
2023-03-12T10:28:47.383Z,6.00
2023-03-12T10:29:47.406Z,5.90
2023-03-12T10:30:47.361Z,5.80
2023-03-12T10:31:47.391Z,5.90
2023-03-12T10:32:47.374Z,5.80
2023-03-12T10:33:47.321Z,5.70
2023-03-12T10:34:47.313Z,6.10
2023-03-12T10:35:47.322Z,5.90
2023-03-12T10:36:47.353Z,5.70
2023-03-12T10:37:47.268Z,6.00
2023-03-12T10:38:47.279Z,5.60
2023-03-12T10:39:47.236Z,5.60
2023-03-12T10:40:47.249Z,5.80
2023-03-12T10:41:47.279Z,6.10
2023-03-12T10:42:47.211Z,5.80
2023-03-12T10:43:47.214Z,6.50
2023-03-12T10:44:47.179Z,6.90
2023-03-12T10:45:47.215Z,6.00
2023-03-12T10:46:47.340Z,5.80
2023-03-12T10:47:47.192Z,6.20
2023-03-12T10:48:47.144Z,5.90
2023-03-12T10:49:47.156Z,6.00
2023-03-12T10:50:47.118Z,6.00
2023-03-12T10:51:47.146Z,5.80
2023-03-12T10:52:47.097Z,5.50
2023-03-12T10:53:47.107Z,5.60
2023-03-12T10:54:47.097Z,5.70
2023-03-12T10:55:47.089Z,5.70
2023-03-12T10:56:47.104Z,5.80
2023-03-12T10:57:47.054Z,6.90
2023-03-12T10:58:47.031Z,6.60
2023-03-12T10:59:47.050Z,6.80
2023-03-12T11:00:47.007Z,7.00
2023-03-12T11:01:47.045Z,6.20
2023-03-12T11:02:46.985Z,6.50
2023-03-12T11:03:46.976Z,6.10
2023-03-12T11:04:46.967Z,6.00
2023-03-12T11:05:46.963Z,5.90
2023-03-12T11:06:47.004Z,5.90
2023-03-12T11:07:46.944Z,5.50
2023-03-12T11:08:46.933Z,5.90
2023-03-12T11:09:46.912Z,6.50
2023-03-12T11:10:46.911Z,6.00
2023-03-12T11:11:46.939Z,5.90
2023-03-12T11:12:46.874Z,5.80
2023-03-12T11:13:46.893Z,6.20
2023-03-12T11:14:46.867Z,6.40
2023-03-12T11:15:46.908Z,6.70
2023-03-12T11:16:46.938Z,6.40
2023-03-12T11:17:46.867Z,6.30
2023-03-12T11:18:46.795Z,5.50
2023-03-12T11:19:46.786Z,5.90
2023-03-12T11:20:46.777Z,5.80
2023-03-12T11:21:46.855Z,6.10
2023-03-12T11:22:46.789Z,6.10
2023-03-12T11:23:46.744Z,5.50
2023-03-12T11:24:46.756Z,5.30
2023-03-12T11:25:46.726Z,5.60
2023-03-12T11:26:46.765Z,5.80
2023-03-12T11:27:46.698Z,5.60
2023-03-12T11:28:46.711Z,5.70
2023-03-12T11:29:46.712Z,5.60
2023-03-12T11:30:46.758Z,5.50
2023-03-12T11:31:47.438Z,5.50
2023-03-12T11:32:46.667Z,5.80
2023-03-12T11:33:46.652Z,5.60
2023-03-12T11:34:46.631Z,6.30
2023-03-12T11:35:46.717Z,6.20
2023-03-12T11:36:46.645Z,5.80
2023-03-12T11:37:46.608Z,6.10
2023-03-12T11:38:46.569Z,6.00
2023-03-12T11:39:46.571Z,7.40
2023-03-12T11:40:46.548Z,5.80
2023-03-12T11:41:46.593Z,6.40
2023-03-12T11:42:46.538Z,6.10
2023-03-12T11:43:46.522Z,6.30
2023-03-12T11:44:46.528Z,5.70
2023-03-12T11:45:46.494Z,5.80
2023-03-12T11:46:46.622Z,5.50
2023-03-12T11:47:46.536Z,5.60
2023-03-12T11:48:46.515Z,5.80
2023-03-12T11:49:48.550Z,6.00
2023-03-12T11:50:46.426Z,6.10
2023-03-12T11:51:46.483Z,6.20
2023-03-12T11:52:46.404Z,6.00
2023-03-12T11:53:46.423Z,6.00
2023-03-12T11:54:46.395Z,5.50
2023-03-12T11:55:46.391Z,6.20
2023-03-12T11:56:46.464Z,6.00
2023-03-12T11:57:46.348Z,5.70
2023-03-12T11:58:46.372Z,5.70
2023-03-12T11:59:46.331Z,5.60
2023-03-12T12:00:47.885Z,5.90
2023-03-12T12:01:46.397Z,5.90
2023-03-12T12:02:46.313Z,5.80
2023-03-12T12:03:46.321Z,5.90
2023-03-12T12:04:46.291Z,5.90
2023-03-12T12:05:46.271Z,5.60
2023-03-12T12:06:48.068Z,5.90
2023-03-12T12:07:46.247Z,5.70
2023-03-12T12:08:46.237Z,5.70
2023-03-12T12:09:46.233Z,6.20
2023-03-12T12:10:46.213Z,5.60
2023-03-12T12:11:46.231Z,5.80
2023-03-12T12:12:46.183Z,6.10
2023-03-12T12:13:46.195Z,6.00
2023-03-12T12:14:46.175Z,6.30
2023-03-12T12:15:46.156Z,5.90
2023-03-12T12:16:46.340Z,6.10
2023-03-12T12:17:46.137Z,6.20
2023-03-12T12:18:46.145Z,6.10
2023-03-12T12:19:46.126Z,6.20
2023-03-12T12:20:46.163Z,7.30
2023-03-12T12:21:46.144Z,5.70
2023-03-12T12:22:46.074Z,7.50
2023-03-12T12:23:46.078Z,5.50
2023-03-12T12:24:46.076Z,6.00
2023-03-12T12:25:46.073Z,6.30
2023-03-12T12:26:46.099Z,7.00
2023-03-12T12:27:46.034Z,6.80
2023-03-12T12:28:46.021Z,6.10
2023-03-12T12:29:46.002Z,5.90
2023-03-12T12:30:45.981Z,6.00
2023-03-12T12:31:46.065Z,5.90
2023-03-12T12:32:46.003Z,6.10
2023-03-12T12:33:45.955Z,6.70
2023-03-12T12:34:45.963Z,6.60
2023-03-12T12:35:45.969Z,7.60
2023-03-12T12:36:46.071Z,7.50
2023-03-12T12:37:45.905Z,6.40
2023-03-12T12:38:45.910Z,6.70
2023-03-12T12:39:47.030Z,6.10
2023-03-12T12:40:45.883Z,5.90
2023-03-12T12:41:45.936Z,6.20
2023-03-12T12:42:45.845Z,5.90
2023-03-12T12:43:45.838Z,5.50
2023-03-12T12:44:45.818Z,5.60